sensor_id;sensor_type;location;lat;lon;timestamp;P1;durP1;ratioP1;P2;durP2;ratioP2
6689;SDS011;3382;51.576;8.076;2022-09-01T00:01:37;4.40;;;2.30;;
6689;SDS011;3382;51.576;8.076;2022-09-01T00:04:06;2.47;;;2.27;;
6689;SDS011;3382;51.576;8.076;2022-09-01T00:06:33;3.27;;;2.13;;
6689;SDS011;3382;51.576;8.076;2022-09-01T00:09:01;5.00;;;2.27;;
6689;SDS011;3382;51.576;8.076;2022-09-01T00:11:28;5.00;;;2.33;;
6689;SDS011;3382;51.576;8.076;2022-09-01T00:13:55;4.87;;;2.10;;
6689;SDS011;3382;51.576;8.076;2022-09-01T00:16:22;3.03;;;2.20;;
6689;SDS011;3382;51.576;8.076;2022-09-01T00:18:50;3.17;;;2.40;;
6689;SDS011;3382;51.576;8.076;2022-09-01T00:21:18;3.60;;;2.30;;
6689;SDS011;3382;51.576;8.076;2022-09-01T00:23:49;2.20;;;2.00;;
6689;SDS011;3382;51.576;8.076;2022-09-01T00:26:14;3.93;;;2.37;;
6689;SDS011;3382;51.576;8.076;2022-09-01T00:28:40;4.53;;;2.47;;
6689;SDS011;3382;51.576;8.076;2022-09-01T00:31:07;3.40;;;2.10;;
6689;SDS011;3382;51.576;8.076;2022-09-01T00:33:36;2.30;;;2.10;;
6689;SDS011;3382;51.576;8.076;2022-09-01T00:36:02;4.33;;;2.30;;
6689;SDS011;3382;51.576;8.076;2022-09-01T00:38:29;5.07;;;2.17;;
6689;SDS011;3382;51.576;8.076;2022-09-01T00:40:55;3.07;;;1.80;;
6689;SDS011;3382;51.576;8.076;2022-09-01T00:43:23;3.20;;;1.97;;
6689;SDS011;3382;51.576;8.076;2022-09-01T00:46:11;2.83;;;1.73;;
6689;SDS011;3382;51.576;8.076;2022-09-01T00:48:40;4.03;;;2.20;;
6689;SDS011;3382;51.576;8.076;2022-09-01T00:51:06;3.00;;;2.43;;
6689;SDS011;3382;51.576;8.076;2022-09-01T00:53:35;4.43;;;2.03;;
6689;SDS011;3382;51.576;8.076;2022-09-01T00:56:03;2.87;;;2.10;;
6689;SDS011;3382;51.576;8.076;2022-09-01T00:58:31;4.57;;;2.20;;
6689;SDS011;3382;51.576;8.076;2022-09-01T01:00:58;6.43;;;2.20;;
6689;SDS011;3382;51.576;8.076;2022-09-01T01:05:56;2.50;;;2.00;;
6689;SDS011;3382;51.576;8.076;2022-09-01T01:08:29;4.60;;;1.90;;
6689;SDS011;3382;51.576;8.076;2022-09-01T01:10:58;2.00;;;1.70;;
6689;SDS011;3382;51.576;8.076;2022-09-01T01:13:29;2.80;;;1.77;;
6689;SDS011;3382;51.576;8.076;2022-09-01T01:16:00;2.27;;;1.83;;
6689;SDS011;3382;51.576;8.076;2022-09-01T01:18:27;2.90;;;1.60;;
6689;SDS011;3382;51.576;8.076;2022-09-01T01:21:01;3.93;;;2.20;;
6689;SDS011;3382;51.576;8.076;2022-09-01T01:23:53;5.40;;;1.73;;
6689;SDS011;3382;51.576;8.076;2022-09-01T01:26:26;2.43;;;1.50;;
6689;SDS011;3382;51.576;8.076;2022-09-01T01:28:52;3.53;;;1.93;;
6689;SDS011;3382;51.576;8.076;2022-09-01T01:31:19;4.13;;;2.00;;
6689;SDS011;3382;51.576;8.076;2022-09-01T01:33:49;3.63;;;1.70;;
6689;SDS011;3382;51.576;8.076;2022-09-01T01:38:56;3.07;;;1.70;;
6689;SDS011;3382;51.576;8.076;2022-09-01T01:41:26;4.03;;;1.73;;
6689;SDS011;3382;51.576;8.076;2022-09-01T01:43:54;3.40;;;1.80;;
6689;SDS011;3382;51.576;8.076;2022-09-01T01:46:23;5.40;;;1.83;;
6689;SDS011;3382;51.576;8.076;2022-09-01T01:48:50;4.13;;;1.73;;
6689;SDS011;3382;51.576;8.076;2022-09-01T01:51:18;3.33;;;1.70;;
6689;SDS011;3382;51.576;8.076;2022-09-01T01:53:48;6.47;;;1.80;;
6689;SDS011;3382;51.576;8.076;2022-09-01T01:56:16;1.40;;;1.30;;
6689;SDS011;3382;51.576;8.076;2022-09-01T01:58:43;2.50;;;1.80;;
6689;SDS011;3382;51.576;8.076;2022-09-01T02:01:10;3.40;;;1.80;;
6689;SDS011;3382;51.576;8.076;2022-09-01T02:03:37;5.57;;;1.90;;
6689;SDS011;3382;51.576;8.076;2022-09-01T02:06:05;6.17;;;2.00;;
6689;SDS011;3382;51.576;8.076;2022-09-01T02:08:32;2.40;;;1.77;;
6689;SDS011;3382;51.576;8.076;2022-09-01T02:11:00;7.03;;;1.90;;
6689;SDS011;3382;51.576;8.076;2022-09-01T02:13:27;2.77;;;1.60;;
6689;SDS011;3382;51.576;8.076;2022-09-01T02:15:55;3.03;;;1.87;;
6689;SDS011;3382;51.576;8.076;2022-09-01T02:18:24;2.70;;;1.70;;
6689;SDS011;3382;51.576;8.076;2022-09-01T02:20:58;5.03;;;2.10;;
6689;SDS011;3382;51.576;8.076;2022-09-01T02:23:25;4.53;;;2.30;;
6689;SDS011;3382;51.576;8.076;2022-09-01T02:25:52;4.27;;;1.93;;
6689;SDS011;3382;51.576;8.076;2022-09-01T02:28:22;2.57;;;2.00;;
6689;SDS011;3382;51.576;8.076;2022-09-01T02:30:49;2.77;;;2.00;;
6689;SDS011;3382;51.576;8.076;2022-09-01T02:33:18;3.03;;;2.00;;
6689;SDS011;3382;51.576;8.076;2022-09-01T02:35:44;3.57;;;2.17;;
6689;SDS011;3382;51.576;8.076;2022-09-01T02:38:11;6.20;;;1.97;;
6689;SDS011;3382;51.576;8.076;2022-09-01T02:40:39;3.13;;;1.90;;
6689;SDS011;3382;51.576;8.076;2022-09-01T02:43:08;4.87;;;1.90;;
6689;SDS011;3382;51.576;8.076;2022-09-01T02:45:36;4.63;;;1.83;;
6689;SDS011;3382;51.576;8.076;2022-09-01T02:48:03;4.37;;;1.90;;
6689;SDS011;3382;51.576;8.076;2022-09-01T02:50:34;6.17;;;1.90;;
6689;SDS011;3382;51.576;8.076;2022-09-01T02:53:00;3.23;;;1.83;;
6689;SDS011;3382;51.576;8.076;2022-09-01T02:55:26;3.00;;;2.13;;
6689;SDS011;3382;51.576;8.076;2022-09-01T02:57:52;3.10;;;2.30;;
6689;SDS011;3382;51.576;8.076;2022-09-01T03:00:22;3.03;;;2.07;;
6689;SDS011;3382;51.576;8.076;2022-09-01T03:02:55;2.80;;;2.07;;
6689;SDS011;3382;51.576;8.076;2022-09-01T03:05:24;3.50;;;1.73;;
6689;SDS011;3382;51.576;8.076;2022-09-01T03:07:53;2.43;;;1.77;;
6689;SDS011;3382;51.576;8.076;2022-09-01T03:10:27;2.60;;;1.80;;
6689;SDS011;3382;51.576;8.076;2022-09-01T03:13:03;3.50;;;1.90;;
6689;SDS011;3382;51.576;8.076;2022-09-01T03:15:33;1.90;;;1.70;;
6689;SDS011;3382;51.576;8.076;2022-09-01T03:18:00;4.90;;;1.90;;
6689;SDS011;3382;51.576;8.076;2022-09-01T03:20:28;3.60;;;2.07;;
6689;SDS011;3382;51.576;8.076;2022-09-01T03:22:58;6.20;;;1.90;;
6689;SDS011;3382;51.576;8.076;2022-09-01T03:25:27;2.77;;;1.80;;
6689;SDS011;3382;51.576;8.076;2022-09-01T03:27:54;5.77;;;1.90;;
6689;SDS011;3382;51.576;8.076;2022-09-01T03:30:23;5.87;;;1.90;;
6689;SDS011;3382;51.576;8.076;2022-09-01T03:32:49;10.50;;;3.20;;
6689;SDS011;3382;51.576;8.076;2022-09-01T03:35:15;3.17;;;1.70;;
6689;SDS011;3382;51.576;8.076;2022-09-01T03:37:41;3.13;;;1.60;;
6689;SDS011;3382;51.576;8.076;2022-09-01T03:40:08;5.47;;;1.53;;
6689;SDS011;3382;51.576;8.076;2022-09-01T03:42:35;3.63;;;2.27;;
6689;SDS011;3382;51.576;8.076;2022-09-01T03:45:01;1.30;;;1.20;;
6689;SDS011;3382;51.576;8.076;2022-09-01T03:47:34;1.30;;;0.97;;
6689;SDS011;3382;51.576;8.076;2022-09-01T03:50:04;1.47;;;1.30;;
6689;SDS011;3382;51.576;8.076;2022-09-01T03:53:02;1.30;;;1.20;;
6689;SDS011;3382;51.576;8.076;2022-09-01T03:55:29;1.33;;;1.20;;
6689;SDS011;3382;51.576;8.076;2022-09-01T03:58:00;1.10;;;1.00;;
6689;SDS011;3382;51.576;8.076;2022-09-01T04:00:30;1.37;;;1.20;;
6689;SDS011;3382;51.576;8.076;2022-09-01T04:03:00;1.10;;;1.00;;
6689;SDS011;3382;51.576;8.076;2022-09-01T04:05:27;1.10;;;1.10;;
6689;SDS011;3382;51.576;8.076;2022-09-01T04:07:55;1.23;;;1.07;;
6689;SDS011;3382;51.576;8.076;2022-09-01T04:10:21;1.80;;;1.07;;
6689;SDS011;3382;51.576;8.076;2022-09-01T04:12:48;1.40;;;1.07;;
6689;SDS011;3382;51.576;8.076;2022-09-01T04:15:15;1.73;;;1.10;;
6689;SDS011;3382;51.576;8.076;2022-09-01T04:17:45;1.67;;;1.03;;
6689;SDS011;3382;51.576;8.076;2022-09-01T04:20:34;1.50;;;1.30;;
6689;SDS011;3382;51.576;8.076;2022-09-01T04:23:11;1.33;;;1.23;;
6689;SDS011;3382;51.576;8.076;2022-09-01T04:25:44;1.47;;;1.10;;
6689;SDS011;3382;51.576;8.076;2022-09-01T04:28:13;1.40;;;1.30;;
6689;SDS011;3382;51.576;8.076;2022-09-01T04:30:47;1.57;;;0.97;;
6689;SDS011;3382;51.576;8.076;2022-09-01T04:33:19;1.60;;;1.00;;
6689;SDS011;3382;51.576;8.076;2022-09-01T04:35:46;2.47;;;1.03;;
6689;SDS011;3382;51.576;8.076;2022-09-01T04:38:13;5.40;;;1.50;;
6689;SDS011;3382;51.576;8.076;2022-09-01T04:40:40;2.27;;;1.30;;
6689;SDS011;3382;51.576;8.076;2022-09-01T04:43:06;3.70;;;1.50;;
6689;SDS011;3382;51.576;8.076;2022-09-01T04:45:33;2.63;;;1.77;;
6689;SDS011;3382;51.576;8.076;2022-09-01T04:48:01;3.13;;;1.70;;
6689;SDS011;3382;51.576;8.076;2022-09-01T04:50:28;5.60;;;2.03;;
6689;SDS011;3382;51.576;8.076;2022-09-01T04:52:56;4.57;;;1.77;;
6689;SDS011;3382;51.576;8.076;2022-09-01T04:55:26;4.17;;;1.70;;
6689;SDS011;3382;51.576;8.076;2022-09-01T04:57:54;2.97;;;1.43;;
6689;SDS011;3382;51.576;8.076;2022-09-01T05:00:22;3.50;;;1.90;;
6689;SDS011;3382;51.576;8.076;2022-09-01T05:02:49;4.33;;;1.60;;
6689;SDS011;3382;51.576;8.076;2022-09-01T05:05:18;3.47;;;2.00;;
6689;SDS011;3382;51.576;8.076;2022-09-01T05:07:47;5.37;;;2.00;;
6689;SDS011;3382;51.576;8.076;2022-09-01T05:10:18;2.93;;;1.90;;
6689;SDS011;3382;51.576;8.076;2022-09-01T05:12:45;2.40;;;1.83;;
6689;SDS011;3382;51.576;8.076;2022-09-01T05:15:12;4.80;;;2.00;;
6689;SDS011;3382;51.576;8.076;2022-09-01T05:17:38;5.93;;;2.33;;
6689;SDS011;3382;51.576;8.076;2022-09-01T05:20:04;8.23;;;2.57;;
6689;SDS011;3382;51.576;8.076;2022-09-01T05:22:31;8.00;;;2.47;;
6689;SDS011;3382;51.576;8.076;2022-09-01T05:24:58;6.03;;;2.30;;
6689;SDS011;3382;51.576;8.076;2022-09-01T05:27:35;4.33;;;2.00;;
6689;SDS011;3382;51.576;8.076;2022-09-01T05:30:03;3.30;;;1.87;;
6689;SDS011;3382;51.576;8.076;2022-09-01T05:32:32;2.47;;;2.00;;
6689;SDS011;3382;51.576;8.076;2022-09-01T05:35:01;4.83;;;2.00;;
6689;SDS011;3382;51.576;8.076;2022-09-01T05:37:30;4.93;;;1.87;;
6689;SDS011;3382;51.576;8.076;2022-09-01T05:39:56;2.67;;;2.03;;
6689;SDS011;3382;51.576;8.076;2022-09-01T05:42:22;5.83;;;1.90;;
6689;SDS011;3382;51.576;8.076;2022-09-01T05:44:48;8.17;;;2.20;;
6689;SDS011;3382;51.576;8.076;2022-09-01T05:47:14;3.50;;;1.97;;
6689;SDS011;3382;51.576;8.076;2022-09-01T05:49:40;5.10;;;2.13;;
6689;SDS011;3382;51.576;8.076;2022-09-01T05:52:06;3.97;;;1.97;;
6689;SDS011;3382;51.576;8.076;2022-09-01T05:54:33;7.43;;;2.03;;
6689;SDS011;3382;51.576;8.076;2022-09-01T05:56:59;2.60;;;1.70;;
6689;SDS011;3382;51.576;8.076;2022-09-01T05:59:26;4.43;;;1.90;;
6689;SDS011;3382;51.576;8.076;2022-09-01T06:01:55;1.90;;;1.60;;
6689;SDS011;3382;51.576;8.076;2022-09-01T06:04:21;5.57;;;1.93;;
6689;SDS011;3382;51.576;8.076;2022-09-01T06:06:49;3.33;;;2.37;;
6689;SDS011;3382;51.576;8.076;2022-09-01T06:09:16;5.93;;;1.80;;
6689;SDS011;3382;51.576;8.076;2022-09-01T06:11:42;3.97;;;2.10;;
6689;SDS011;3382;51.576;8.076;2022-09-01T06:14:11;2.53;;;2.10;;
6689;SDS011;3382;51.576;8.076;2022-09-01T06:16:39;5.23;;;1.97;;
6689;SDS011;3382;51.576;8.076;2022-09-01T06:19:05;6.07;;;1.70;;
6689;SDS011;3382;51.576;8.076;2022-09-01T06:21:30;3.90;;;1.77;;
6689;SDS011;3382;51.576;8.076;2022-09-01T06:23:56;4.27;;;1.70;;
6689;SDS011;3382;51.576;8.076;2022-09-01T06:28:56;3.43;;;1.93;;
6689;SDS011;3382;51.576;8.076;2022-09-01T06:31:28;6.27;;;2.07;;
6689;SDS011;3382;51.576;8.076;2022-09-01T06:33:58;2.83;;;1.80;;
6689;SDS011;3382;51.576;8.076;2022-09-01T06:36:25;3.30;;;1.93;;
6689;SDS011;3382;51.576;8.076;2022-09-01T06:38:52;3.67;;;1.90;;
6689;SDS011;3382;51.576;8.076;2022-09-01T06:41:19;3.30;;;1.80;;
6689;SDS011;3382;51.576;8.076;2022-09-01T06:43:47;7.03;;;2.00;;
6689;SDS011;3382;51.576;8.076;2022-09-01T06:46:15;2.33;;;1.80;;
6689;SDS011;3382;51.576;8.076;2022-09-01T06:48:42;5.90;;;2.20;;
6689;SDS011;3382;51.576;8.076;2022-09-01T06:51:10;4.60;;;2.17;;
6689;SDS011;3382;51.576;8.076;2022-09-01T06:53:38;3.60;;;1.97;;
6689;SDS011;3382;51.576;8.076;2022-09-01T06:56:05;9.77;;;2.20;;
6689;SDS011;3382;51.576;8.076;2022-09-01T06:58:31;14.10;;;2.13;;
6689;SDS011;3382;51.576;8.076;2022-09-01T07:00:57;4.87;;;2.00;;
6689;SDS011;3382;51.576;8.076;2022-09-01T07:03:22;9.87;;;2.40;;
6689;SDS011;3382;51.576;8.076;2022-09-01T07:05:49;8.93;;;1.90;;
6689;SDS011;3382;51.576;8.076;2022-09-01T07:08:16;5.97;;;1.87;;
6689;SDS011;3382;51.576;8.076;2022-09-01T07:10:47;6.00;;;2.10;;
6689;SDS011;3382;51.576;8.076;2022-09-01T07:13:15;6.13;;;1.73;;
6689;SDS011;3382;51.576;8.076;2022-09-01T07:15:45;6.93;;;2.10;;
6689;SDS011;3382;51.576;8.076;2022-09-01T07:18:13;5.17;;;1.70;;
6689;SDS011;3382;51.576;8.076;2022-09-01T07:20:41;2.30;;;1.30;;
6689;SDS011;3382;51.576;8.076;2022-09-01T07:23:08;6.03;;;1.70;;
6689;SDS011;3382;51.576;8.076;2022-09-01T07:25:39;7.83;;;1.90;;
6689;SDS011;3382;51.576;8.076;2022-09-01T07:28:06;13.83;;;1.80;;
6689;SDS011;3382;51.576;8.076;2022-09-01T07:30:32;1.57;;;1.00;;
6689;SDS011;3382;51.576;8.076;2022-09-01T07:33:04;4.67;;;1.87;;
6689;SDS011;3382;51.576;8.076;2022-09-01T07:35:36;1.80;;;1.30;;
6689;SDS011;3382;51.576;8.076;2022-09-01T07:38:03;5.80;;;1.47;;
6689;SDS011;3382;51.576;8.076;2022-09-01T07:40:32;1.67;;;1.27;;
6689;SDS011;3382;51.576;8.076;2022-09-01T07:43:02;2.67;;;1.37;;
6689;SDS011;3382;51.576;8.076;2022-09-01T07:45:32;7.10;;;1.63;;
6689;SDS011;3382;51.576;8.076;2022-09-01T07:48:01;5.67;;;1.40;;
6689;SDS011;3382;51.576;8.076;2022-09-01T07:50:31;4.63;;;1.47;;
6689;SDS011;3382;51.576;8.076;2022-09-01T07:53:01;6.60;;;1.67;;
6689;SDS011;3382;51.576;8.076;2022-09-01T07:55:27;7.07;;;1.47;;
6689;SDS011;3382;51.576;8.076;2022-09-01T07:57:53;2.60;;;1.40;;
6689;SDS011;3382;51.576;8.076;2022-09-01T08:00:19;9.07;;;1.67;;
6689;SDS011;3382;51.576;8.076;2022-09-01T08:02:46;5.07;;;1.40;;
6689;SDS011;3382;51.576;8.076;2022-09-01T08:05:15;6.13;;;1.60;;
6689;SDS011;3382;51.576;8.076;2022-09-01T08:07:46;5.33;;;1.67;;
6689;SDS011;3382;51.576;8.076;2022-09-01T08:10:13;3.03;;;1.50;;
6689;SDS011;3382;51.576;8.076;2022-09-01T08:12:40;6.37;;;1.63;;
6689;SDS011;3382;51.576;8.076;2022-09-01T08:15:06;4.93;;;1.40;;
6689;SDS011;3382;51.576;8.076;2022-09-01T08:17:36;6.10;;;1.53;;
6689;SDS011;3382;51.576;8.076;2022-09-01T08:20:03;5.27;;;1.40;;
6689;SDS011;3382;51.576;8.076;2022-09-01T08:22:33;7.77;;;1.40;;
6689;SDS011;3382;51.576;8.076;2022-09-01T08:25:01;5.57;;;1.40;;
6689;SDS011;3382;51.576;8.076;2022-09-01T08:27:27;6.07;;;1.30;;
6689;SDS011;3382;51.576;8.076;2022-09-01T08:29:52;6.03;;;1.70;;
6689;SDS011;3382;51.576;8.076;2022-09-01T08:32:19;7.67;;;1.63;;
6689;SDS011;3382;51.576;8.076;2022-09-01T08:34:45;9.27;;;2.00;;
6689;SDS011;3382;51.576;8.076;2022-09-01T08:37:10;2.40;;;1.10;;
6689;SDS011;3382;51.576;8.076;2022-09-01T08:39:36;10.20;;;1.60;;
6689;SDS011;3382;51.576;8.076;2022-09-01T08:47:47;9.40;;;1.83;;
6689;SDS011;3382;51.576;8.076;2022-09-01T08:50:17;5.47;;;1.60;;
6689;SDS011;3382;51.576;8.076;2022-09-01T08:52:45;8.23;;;1.87;;
6689;SDS011;3382;51.576;8.076;2022-09-01T08:57:59;8.63;;;1.30;;
6689;SDS011;3382;51.576;8.076;2022-09-01T09:00:26;6.43;;;1.23;;
6689;SDS011;3382;51.576;8.076;2022-09-01T09:11:04;6.03;;;1.47;;
6689;SDS011;3382;51.576;8.076;2022-09-01T09:16:48;3.23;;;1.73;;
6689;SDS011;3382;51.576;8.076;2022-09-01T09:21:49;6.33;;;1.60;;
6689;SDS011;3382;51.576;8.076;2022-09-01T09:30:34;9.87;;;1.60;;
6689;SDS011;3382;51.576;8.076;2022-09-01T09:32:57;5.30;;;1.70;;
6689;SDS011;3382;51.576;8.076;2022-09-01T09:35:28;8.93;;;1.63;;
6689;SDS011;3382;51.576;8.076;2022-09-01T09:37:56;1.43;;;1.33;;
6689;SDS011;3382;51.576;8.076;2022-09-01T09:41:00;2.13;;;1.20;;
6689;SDS011;3382;51.576;8.076;2022-09-01T09:49:06;1.47;;;1.17;;
6689;SDS011;3382;51.576;8.076;2022-09-01T09:51:32;4.50;;;1.40;;
6689;SDS011;3382;51.576;8.076;2022-09-01T09:56:43;1.43;;;1.10;;
6689;SDS011;3382;51.576;8.076;2022-09-01T09:59:20;3.83;;;1.43;;
6689;SDS011;3382;51.576;8.076;2022-09-01T10:01:50;9.37;;;1.23;;
6689;SDS011;3382;51.576;8.076;2022-09-01T10:04:35;3.73;;;1.27;;
6689;SDS011;3382;51.576;8.076;2022-09-01T10:07:10;2.27;;;1.30;;
6689;SDS011;3382;51.576;8.076;2022-09-01T10:09:52;4.07;;;1.40;;
6689;SDS011;3382;51.576;8.076;2022-09-01T10:12:19;1.47;;;1.10;;
6689;SDS011;3382;51.576;8.076;2022-09-01T10:14:49;3.10;;;1.30;;
6689;SDS011;3382;51.576;8.076;2022-09-01T10:17:20;5.07;;;1.33;;
6689;SDS011;3382;51.576;8.076;2022-09-01T10:19:56;2.33;;;1.50;;
6689;SDS011;3382;51.576;8.076;2022-09-01T10:22:29;3.60;;;1.40;;
6689;SDS011;3382;51.576;8.076;2022-09-01T10:24:55;2.57;;;1.30;;
6689;SDS011;3382;51.576;8.076;2022-09-01T10:27:22;0.73;;;0.73;;
6689;SDS011;3382;51.576;8.076;2022-09-01T10:30:07;2.93;;;0.83;;
6689;SDS011;3382;51.576;8.076;2022-09-01T10:32:45;2.17;;;1.20;;
6689;SDS011;3382;51.576;8.076;2022-09-01T10:35:17;7.03;;;1.00;;
6689;SDS011;3382;51.576;8.076;2022-09-01T10:37:50;1.77;;;1.40;;
6689;SDS011;3382;51.576;8.076;2022-09-01T10:40:19;1.10;;;1.00;;
6689;SDS011;3382;51.576;8.076;2022-09-01T10:42:46;1.77;;;1.10;;
6689;SDS011;3382;51.576;8.076;2022-09-01T10:45:36;2.23;;;1.17;;
6689;SDS011;3382;51.576;8.076;2022-09-01T10:53:37;2.70;;;1.30;;
6689;SDS011;3382;51.576;8.076;2022-09-01T10:56:05;2.97;;;1.20;;
6689;SDS011;3382;51.576;8.076;2022-09-01T11:01:43;1.53;;;1.00;;
6689;SDS011;3382;51.576;8.076;2022-09-01T11:04:04;4.13;;;1.10;;
6689;SDS011;3382;51.576;8.076;2022-09-01T11:09:35;4.33;;;1.00;;
6689;SDS011;3382;51.576;8.076;2022-09-01T11:17:38;2.50;;;1.00;;
6689;SDS011;3382;51.576;8.076;2022-09-01T11:20:25;3.17;;;1.27;;
6689;SDS011;3382;51.576;8.076;2022-09-01T11:23:02;3.80;;;1.03;;
6689;SDS011;3382;51.576;8.076;2022-09-01T11:30:40;3.03;;;0.90;;
6689;SDS011;3382;51.576;8.076;2022-09-01T11:35:40;3.83;;;1.30;;
6689;SDS011;3382;51.576;8.076;2022-09-01T11:38:11;1.63;;;0.90;;
6689;SDS011;3382;51.576;8.076;2022-09-01T11:40:40;1.23;;;0.93;;
6689;SDS011;3382;51.576;8.076;2022-09-01T11:43:08;2.33;;;1.10;;
6689;SDS011;3382;51.576;8.076;2022-09-01T11:46:24;1.70;;;1.00;;
6689;SDS011;3382;51.576;8.076;2022-09-01T11:48:28;3.03;;;1.33;;
6689;SDS011;3382;51.576;8.076;2022-09-01T11:50:58;1.17;;;1.07;;
6689;SDS011;3382;51.576;8.076;2022-09-01T11:53:25;6.83;;;1.20;;
6689;SDS011;3382;51.576;8.076;2022-09-01T11:55:52;3.57;;;1.27;;
6689;SDS011;3382;51.576;8.076;2022-09-01T12:00:53;2.83;;;1.13;;
6689;SDS011;3382;51.576;8.076;2022-09-01T12:05:56;3.37;;;1.20;;
6689;SDS011;3382;51.576;8.076;2022-09-01T12:08:26;2.67;;;0.93;;
6689;SDS011;3382;51.576;8.076;2022-09-01T12:16:23;2.80;;;1.00;;
6689;SDS011;3382;51.576;8.076;2022-09-01T12:18:50;1.77;;;1.23;;
6689;SDS011;3382;51.576;8.076;2022-09-01T12:21:27;1.40;;;1.00;;
6689;SDS011;3382;51.576;8.076;2022-09-01T12:26:45;6.90;;;1.20;;
6689;SDS011;3382;51.576;8.076;2022-09-01T12:29:13;5.30;;;1.10;;
6689;SDS011;3382;51.576;8.076;2022-09-01T12:31:40;15.13;;;1.30;;
6689;SDS011;3382;51.576;8.076;2022-09-01T12:34:22;3.20;;;1.10;;
6689;SDS011;3382;51.576;8.076;2022-09-01T12:39:40;3.87;;;0.93;;
6689;SDS011;3382;51.576;8.076;2022-09-01T12:47:13;10.07;;;1.93;;
6689;SDS011;3382;51.576;8.076;2022-09-01T12:49:58;2.93;;;0.90;;
6689;SDS011;3382;51.576;8.076;2022-09-01T12:52:28;9.87;;;1.23;;
6689;SDS011;3382;51.576;8.076;2022-09-01T12:55:16;1.30;;;1.00;;
6689;SDS011;3382;51.576;8.076;2022-09-01T12:57:47;0.93;;;0.87;;
6689;SDS011;3382;51.576;8.076;2022-09-01T13:00:17;1.47;;;1.33;;
6689;SDS011;3382;51.576;8.076;2022-09-01T13:02:47;3.27;;;0.93;;
6689;SDS011;3382;51.576;8.076;2022-09-01T13:05:30;21.67;;;1.90;;
6689;SDS011;3382;51.576;8.076;2022-09-01T13:08:05;59.03;;;4.33;;
6689;SDS011;3382;51.576;8.076;2022-09-01T13:10:37;1.17;;;0.93;;
6689;SDS011;3382;51.576;8.076;2022-09-01T13:13:06;4.20;;;1.10;;
6689;SDS011;3382;51.576;8.076;2022-09-01T13:15:34;4.10;;;0.90;;
6689;SDS011;3382;51.576;8.076;2022-09-01T13:18:01;7.70;;;1.27;;
6689;SDS011;3382;51.576;8.076;2022-09-01T13:20:27;3.77;;;1.60;;
6689;SDS011;3382;51.576;8.076;2022-09-01T13:22:52;7.10;;;1.53;;
6689;SDS011;3382;51.576;8.076;2022-09-01T13:25:19;2.80;;;0.90;;
6689;SDS011;3382;51.576;8.076;2022-09-01T13:27:46;1.30;;;1.07;;
6689;SDS011;3382;51.576;8.076;2022-09-01T13:30:16;2.97;;;1.00;;
6689;SDS011;3382;51.576;8.076;2022-09-01T13:32:44;7.03;;;1.30;;
6689;SDS011;3382;51.576;8.076;2022-09-01T13:35:11;4.33;;;1.10;;
6689;SDS011;3382;51.576;8.076;2022-09-01T13:37:43;4.83;;;1.10;;
6689;SDS011;3382;51.576;8.076;2022-09-01T13:40:09;2.53;;;1.23;;
6689;SDS011;3382;51.576;8.076;2022-09-01T13:42:47;2.80;;;1.10;;
6689;SDS011;3382;51.576;8.076;2022-09-01T13:45:15;3.50;;;1.30;;
6689;SDS011;3382;51.576;8.076;2022-09-01T13:47:43;3.90;;;1.20;;
6689;SDS011;3382;51.576;8.076;2022-09-01T13:50:11;3.33;;;1.00;;
6689;SDS011;3382;51.576;8.076;2022-09-01T13:52:42;3.13;;;0.80;;
6689;SDS011;3382;51.576;8.076;2022-09-01T13:55:11;1.97;;;0.90;;
6689;SDS011;3382;51.576;8.076;2022-09-01T13:57:38;5.20;;;1.50;;
6689;SDS011;3382;51.576;8.076;2022-09-01T14:00:06;7.73;;;1.20;;
6689;SDS011;3382;51.576;8.076;2022-09-01T14:02:39;2.13;;;1.10;;
6689;SDS011;3382;51.576;8.076;2022-09-01T14:05:08;3.20;;;0.90;;
6689;SDS011;3382;51.576;8.076;2022-09-01T14:07:34;2.63;;;1.23;;
6689;SDS011;3382;51.576;8.076;2022-09-01T14:09:59;2.53;;;0.90;;
6689;SDS011;3382;51.576;8.076;2022-09-01T14:12:25;3.63;;;0.97;;
6689;SDS011;3382;51.576;8.076;2022-09-01T14:14:51;3.13;;;1.30;;
6689;SDS011;3382;51.576;8.076;2022-09-01T14:17:16;6.13;;;1.23;;
6689;SDS011;3382;51.576;8.076;2022-09-01T14:19:42;3.57;;;1.20;;
6689;SDS011;3382;51.576;8.076;2022-09-01T14:22:14;9.80;;;1.20;;
6689;SDS011;3382;51.576;8.076;2022-09-01T14:24:39;4.73;;;1.10;;
6689;SDS011;3382;51.576;8.076;2022-09-01T14:27:05;2.07;;;1.13;;
6689;SDS011;3382;51.576;8.076;2022-09-01T14:29:31;31.10;;;2.00;;
6689;SDS011;3382;51.576;8.076;2022-09-01T14:31:56;8.70;;;1.17;;
6689;SDS011;3382;51.576;8.076;2022-09-01T14:34:22;24.47;;;2.37;;
6689;SDS011;3382;51.576;8.076;2022-09-01T14:36:49;2.50;;;1.07;;
6689;SDS011;3382;51.576;8.076;2022-09-01T14:39:16;2.13;;;1.10;;
6689;SDS011;3382;51.576;8.076;2022-09-01T14:41:41;2.53;;;1.10;;
6689;SDS011;3382;51.576;8.076;2022-09-01T14:44:07;41.87;;;2.47;;
6689;SDS011;3382;51.576;8.076;2022-09-01T14:46:32;8.53;;;1.30;;
6689;SDS011;3382;51.576;8.076;2022-09-01T14:48:59;1.80;;;1.00;;
6689;SDS011;3382;51.576;8.076;2022-09-01T14:51:27;2.50;;;1.30;;
6689;SDS011;3382;51.576;8.076;2022-09-01T14:53:54;11.67;;;1.57;;
6689;SDS011;3382;51.576;8.076;2022-09-01T14:56:21;18.13;;;2.03;;
6689;SDS011;3382;51.576;8.076;2022-09-01T14:58:47;1.87;;;1.00;;
6689;SDS011;3382;51.576;8.076;2022-09-01T15:01:18;6.53;;;1.47;;
6689;SDS011;3382;51.576;8.076;2022-09-01T15:03:45;1.83;;;1.10;;
6689;SDS011;3382;51.576;8.076;2022-09-01T15:06:12;2.23;;;1.50;;
6689;SDS011;3382;51.576;8.076;2022-09-01T15:08:39;7.63;;;1.37;;
6689;SDS011;3382;51.576;8.076;2022-09-01T15:11:07;5.60;;;1.30;;
6689;SDS011;3382;51.576;8.076;2022-09-01T15:13:41;2.03;;;1.03;;
6689;SDS011;3382;51.576;8.076;2022-09-01T15:16:18;5.57;;;1.30;;
6689;SDS011;3382;51.576;8.076;2022-09-01T15:18:45;13.13;;;1.40;;
6689;SDS011;3382;51.576;8.076;2022-09-01T15:21:22;4.80;;;1.10;;
6689;SDS011;3382;51.576;8.076;2022-09-01T15:23:50;5.60;;;1.03;;
6689;SDS011;3382;51.576;8.076;2022-09-01T15:26:18;6.03;;;1.23;;
6689;SDS011;3382;51.576;8.076;2022-09-01T15:28:45;1.10;;;1.00;;
6689;SDS011;3382;51.576;8.076;2022-09-01T15:31:12;3.53;;;1.30;;
6689;SDS011;3382;51.576;8.076;2022-09-01T15:33:39;4.10;;;1.30;;
6689;SDS011;3382;51.576;8.076;2022-09-01T15:36:06;5.03;;;1.23;;
6689;SDS011;3382;51.576;8.076;2022-09-01T15:38:32;5.80;;;1.30;;
6689;SDS011;3382;51.576;8.076;2022-09-01T15:40:58;4.47;;;1.30;;
6689;SDS011;3382;51.576;8.076;2022-09-01T15:43:26;4.33;;;1.33;;
6689;SDS011;3382;51.576;8.076;2022-09-01T15:45:52;6.93;;;1.60;;
6689;SDS011;3382;51.576;8.076;2022-09-01T15:48:18;8.20;;;1.40;;
6689;SDS011;3382;51.576;8.076;2022-09-01T15:50:44;6.00;;;1.20;;
6689;SDS011;3382;51.576;8.076;2022-09-01T15:53:10;10.13;;;1.50;;
6689;SDS011;3382;51.576;8.076;2022-09-01T15:55:41;4.87;;;1.87;;
6689;SDS011;3382;51.576;8.076;2022-09-01T15:58:09;8.47;;;1.13;;
6689;SDS011;3382;51.576;8.076;2022-09-01T16:00:36;3.83;;;1.37;;
6689;SDS011;3382;51.576;8.076;2022-09-01T16:03:03;5.53;;;1.47;;
6689;SDS011;3382;51.576;8.076;2022-09-01T16:05:29;3.03;;;0.90;;
6689;SDS011;3382;51.576;8.076;2022-09-01T16:07:56;1.80;;;1.10;;
6689;SDS011;3382;51.576;8.076;2022-09-01T16:10:23;7.57;;;1.20;;
6689;SDS011;3382;51.576;8.076;2022-09-01T16:12:48;9.97;;;1.30;;
6689;SDS011;3382;51.576;8.076;2022-09-01T16:15:17;2.73;;;1.40;;
6689;SDS011;3382;51.576;8.076;2022-09-01T16:20:19;10.97;;;1.50;;
6689;SDS011;3382;51.576;8.076;2022-09-01T16:22:52;5.07;;;1.13;;
6689;SDS011;3382;51.576;8.076;2022-09-01T16:25:27;4.97;;;1.10;;
6689;SDS011;3382;51.576;8.076;2022-09-01T16:27:56;2.93;;;1.13;;
6689;SDS011;3382;51.576;8.076;2022-09-01T16:30:26;3.77;;;1.20;;
6689;SDS011;3382;51.576;8.076;2022-09-01T16:32:55;1.27;;;1.00;;
6689;SDS011;3382;51.576;8.076;2022-09-01T16:35:24;1.90;;;1.07;;
6689;SDS011;3382;51.576;8.076;2022-09-01T16:38:12;1.67;;;0.90;;
6689;SDS011;3382;51.576;8.076;2022-09-01T16:44:05;1.20;;;1.10;;
6689;SDS011;3382;51.576;8.076;2022-09-01T16:46:30;5.37;;;1.00;;
6689;SDS011;3382;51.576;8.076;2022-09-01T16:51:58;2.63;;;1.13;;
6689;SDS011;3382;51.576;8.076;2022-09-01T16:57:11;3.23;;;1.10;;
6689;SDS011;3382;51.576;8.076;2022-09-01T16:59:49;4.53;;;1.13;;
6689;SDS011;3382;51.576;8.076;2022-09-01T17:08:15;2.77;;;1.40;;
6689;SDS011;3382;51.576;8.076;2022-09-01T17:13:24;2.97;;;1.10;;
6689;SDS011;3382;51.576;8.076;2022-09-01T17:16:14;2.53;;;1.30;;
6689;SDS011;3382;51.576;8.076;2022-09-01T17:18:49;8.10;;;1.53;;